sensor_id;sensor_type;location;lat;lon;timestamp;temperature;humidity
30097;DHT22;16915;51.466;3.610;2022-08-21T00:01:31;17.00;99.90
30097;DHT22;16915;51.466;3.610;2022-08-21T00:03:56;17.00;99.90
30097;DHT22;16915;51.466;3.610;2022-08-21T00:06:24;17.00;99.90
30097;DHT22;16915;51.466;3.610;2022-08-21T00:08:51;16.90;99.90
30097;DHT22;16915;51.466;3.610;2022-08-21T00:11:17;16.90;99.90
30097;DHT22;16915;51.466;3.610;2022-08-21T00:13:44;16.90;99.90
30097;DHT22;16915;51.466;3.610;2022-08-21T00:16:14;16.80;99.90
30097;DHT22;16915;51.466;3.610;2022-08-21T00:18:39;16.80;99.90
30097;DHT22;16915;51.466;3.610;2022-08-21T00:21:06;16.80;99.90
30097;DHT22;16915;51.466;3.610;2022-08-21T00:23:34;16.80;99.90
30097;DHT22;16915;51.466;3.610;2022-08-21T00:26:00;16.80;99.90
30097;DHT22;16915;51.466;3.610;2022-08-21T00:28:26;16.80;99.90
30097;DHT22;16915;51.466;3.610;2022-08-21T00:30:52;16.70;99.90
30097;DHT22;16915;51.466;3.610;2022-08-21T00:33:18;16.70;99.90
30097;DHT22;16915;51.466;3.610;2022-08-21T00:35:46;16.70;99.90
30097;DHT22;16915;51.466;3.610;2022-08-21T00:38:12;16.70;99.90
30097;DHT22;16915;51.466;3.610;2022-08-21T00:40:52;16.70;99.90
30097;DHT22;16915;51.466;3.610;2022-08-21T00:43:21;16.70;99.90
30097;DHT22;16915;51.466;3.610;2022-08-21T00:45:47;16.70;99.90
30097;DHT22;16915;51.466;3.610;2022-08-21T00:48:16;16.60;99.90
30097;DHT22;16915;51.466;3.610;2022-08-21T00:51:20;16.60;99.90
30097;DHT22;16915;51.466;3.610;2022-08-21T00:53:56;16.60;99.90
30097;DHT22;16915;51.466;3.610;2022-08-21T00:56:25;16.60;99.90
30097;DHT22;16915;51.466;3.610;2022-08-21T00:58:59;16.50;99.90
30097;DHT22;16915;51.466;3.610;2022-08-21T01:01:55;16.50;99.90
30097;DHT22;16915;51.466;3.610;2022-08-21T01:04:43;16.50;99.90
30097;DHT22;16915;51.466;3.610;2022-08-21T01:07:36;16.50;99.90
30097;DHT22;16915;51.466;3.610;2022-08-21T01:10:11;16.50;99.90
30097;DHT22;16915;51.466;3.610;2022-08-21T01:13:01;16.50;99.90
30097;DHT22;16915;51.466;3.610;2022-08-21T01:15:48;16.40;99.90
30097;DHT22;16915;51.466;3.610;2022-08-21T01:18:16;16.50;99.90
30097;DHT22;16915;51.466;3.610;2022-08-21T01:23:35;16.40;99.90
30097;DHT22;16915;51.466;3.610;2022-08-21T01:26:04;16.40;99.90
30097;DHT22;16915;51.466;3.610;2022-08-21T01:28:44;16.30;99.90
30097;DHT22;16915;51.466;3.610;2022-08-21T01:31:39;16.30;99.90
30097;DHT22;16915;51.466;3.610;2022-08-21T01:34:23;16.30;99.90
30097;DHT22;16915;51.466;3.610;2022-08-21T01:36:49;16.30;99.90
30097;DHT22;16915;51.466;3.610;2022-08-21T01:39:28;16.30;99.90
30097;DHT22;16915;51.466;3.610;2022-08-21T01:42:01;16.20;99.90
30097;DHT22;16915;51.466;3.610;2022-08-21T01:44:27;16.20;99.90
30097;DHT22;16915;51.466;3.610;2022-08-21T01:47:03;16.10;99.90
30097;DHT22;16915;51.466;3.610;2022-08-21T01:49:33;16.10;99.90
30097;DHT22;16915;51.466;3.610;2022-08-21T01:52:04;16.10;99.90
30097;DHT22;16915;51.466;3.610;2022-08-21T01:54:33;16.10;99.90
30097;DHT22;16915;51.466;3.610;2022-08-21T01:57:02;16.10;99.90
30097;DHT22;16915;51.466;3.610;2022-08-21T01:59:31;16.00;99.90
30097;DHT22;16915;51.466;3.610;2022-08-21T02:01:56;16.00;99.90
30097;DHT22;16915;51.466;3.610;2022-08-21T02:04:25;16.00;99.90
30097;DHT22;16915;51.466;3.610;2022-08-21T02:06:56;16.00;99.90
30097;DHT22;16915;51.466;3.610;2022-08-21T02:09:23;16.10;99.90
30097;DHT22;16915;51.466;3.610;2022-08-21T02:11:49;15.90;99.90
30097;DHT22;16915;51.466;3.610;2022-08-21T02:14:16;15.90;99.90
30097;DHT22;16915;51.466;3.610;2022-08-21T02:16:45;15.90;99.90
30097;DHT22;16915;51.466;3.610;2022-08-21T02:19:15;15.90;99.90
30097;DHT22;16915;51.466;3.610;2022-08-21T02:21:41;15.90;99.90
30097;DHT22;16915;51.466;3.610;2022-08-21T02:24:10;15.90;99.90
30097;DHT22;16915;51.466;3.610;2022-08-21T02:26:36;15.90;99.90
30097;DHT22;16915;51.466;3.610;2022-08-21T02:29:03;15.90;99.90
30097;DHT22;16915;51.466;3.610;2022-08-21T02:31:35;15.90;99.90
30097;DHT22;16915;51.466;3.610;2022-08-21T02:34:06;15.80;99.90
30097;DHT22;16915;51.466;3.610;2022-08-21T02:36:33;15.80;99.90
30097;DHT22;16915;51.466;3.610;2022-08-21T02:39:01;15.80;99.90
30097;DHT22;16915;51.466;3.610;2022-08-21T02:41:27;15.80;99.90
30097;DHT22;16915;51.466;3.610;2022-08-21T02:43:57;15.70;99.90
30097;DHT22;16915;51.466;3.610;2022-08-21T02:46:24;15.80;99.90
30097;DHT22;16915;51.466;3.610;2022-08-21T02:48:49;15.70;99.90
30097;DHT22;16915;51.466;3.610;2022-08-21T02:51:18;15.70;99.90
30097;DHT22;16915;51.466;3.610;2022-08-21T02:53:46;15.70;99.90
30097;DHT22;16915;51.466;3.610;2022-08-21T02:56:14;15.70;99.90
30097;DHT22;16915;51.466;3.610;2022-08-21T02:58:45;15.70;99.90
30097;DHT22;16915;51.466;3.610;2022-08-21T03:01:13;15.70;99.90
30097;DHT22;16915;51.466;3.610;2022-08-21T03:03:41;15.70;99.90
30097;DHT22;16915;51.466;3.610;2022-08-21T03:06:10;15.70;99.90
30097;DHT22;16915;51.466;3.610;2022-08-21T03:08:42;15.60;99.90
30097;DHT22;16915;51.466;3.610;2022-08-21T03:11:10;15.60;99.90
30097;DHT22;16915;51.466;3.610;2022-08-21T03:13:40;15.50;99.90
30097;DHT22;16915;51.466;3.610;2022-08-21T03:16:07;15.50;99.90
30097;DHT22;16915;51.466;3.610;2022-08-21T03:18:34;15.50;99.90
30097;DHT22;16915;51.466;3.610;2022-08-21T03:21:03;15.50;99.90
30097;DHT22;16915;51.466;3.610;2022-08-21T03:23:30;15.50;99.90
30097;DHT22;16915;51.466;3.610;2022-08-21T03:25:56;15.50;99.90
30097;DHT22;16915;51.466;3.610;2022-08-21T03:28:24;15.40;99.90
30097;DHT22;16915;51.466;3.610;2022-08-21T03:30:51;15.40;99.90
30097;DHT22;16915;51.466;3.610;2022-08-21T03:33:18;15.40;99.90
30097;DHT22;16915;51.466;3.610;2022-08-21T03:35:47;15.40;99.90
30097;DHT22;16915;51.466;3.610;2022-08-21T03:38:15;15.40;99.90
30097;DHT22;16915;51.466;3.610;2022-08-21T03:40:45;15.40;99.90
30097;DHT22;16915;51.466;3.610;2022-08-21T03:43:35;15.30;99.90
30097;DHT22;16915;51.466;3.610;2022-08-21T03:46:02;15.40;99.90
30097;DHT22;16915;51.466;3.610;2022-08-21T03:48:28;15.30;99.90
30097;DHT22;16915;51.466;3.610;2022-08-21T03:50:54;15.30;99.90
30097;DHT22;16915;51.466;3.610;2022-08-21T03:53:20;15.30;99.90
30097;DHT22;16915;51.466;3.610;2022-08-21T03:55:49;15.30;99.90
30097;DHT22;16915;51.466;3.610;2022-08-21T03:58:21;15.40;99.90
30097;DHT22;16915;51.466;3.610;2022-08-21T04:00:51;15.30;99.90
30097;DHT22;16915;51.466;3.610;2022-08-21T04:03:18;15.30;99.90
30097;DHT22;16915;51.466;3.610;2022-08-21T04:05:44;15.30;99.90
30097;DHT22;16915;51.466;3.610;2022-08-21T04:08:12;15.30;99.90
30097;DHT22;16915;51.466;3.610;2022-08-21T04:10:40;15.30;99.90
30097;DHT22;16915;51.466;3.610;2022-08-21T04:13:07;15.30;99.90
30097;DHT22;16915;51.466;3.610;2022-08-21T04:15:34;15.30;99.90
30097;DHT22;16915;51.466;3.610;2022-08-21T04:18:02;15.20;99.90
30097;DHT22;16915;51.466;3.610;2022-08-21T04:20:28;15.20;99.90
30097;DHT22;16915;51.466;3.610;2022-08-21T04:23:01;15.20;99.90
30097;DHT22;16915;51.466;3.610;2022-08-21T04:25:39;15.10;99.90
30097;DHT22;16915;51.466;3.610;2022-08-21T04:28:08;15.10;99.90
30097;DHT22;16915;51.466;3.610;2022-08-21T04:30:37;15.10;99.90
30097;DHT22;16915;51.466;3.610;2022-08-21T04:33:03;15.10;99.90
30097;DHT22;16915;51.466;3.610;2022-08-21T04:35:30;15.20;99.90
30097;DHT22;16915;51.466;3.610;2022-08-21T04:37:56;15.20;99.90
30097;DHT22;16915;51.466;3.610;2022-08-21T04:40:27;15.20;99.90
30097;DHT22;16915;51.466;3.610;2022-08-21T04:43:01;15.20;99.90
30097;DHT22;16915;51.466;3.610;2022-08-21T04:45:47;15.20;99.90
30097;DHT22;16915;51.466;3.610;2022-08-21T04:48:17;15.20;99.90
30097;DHT22;16915;51.466;3.610;2022-08-21T04:51:03;15.10;99.90
30097;DHT22;16915;51.466;3.610;2022-08-21T04:53:37;15.20;99.90
30097;DHT22;16915;51.466;3.610;2022-08-21T04:56:24;15.20;99.90
30097;DHT22;16915;51.466;3.610;2022-08-21T04:59:11;15.10;99.90
30097;DHT22;16915;51.466;3.610;2022-08-21T05:01:39;15.10;99.90
30097;DHT22;16915;51.466;3.610;2022-08-21T05:04:12;15.20;99.90
30097;DHT22;16915;51.466;3.610;2022-08-21T05:06:41;15.20;99.90
30097;DHT22;16915;51.466;3.610;2022-08-21T05:09:10;15.10;99.90
30097;DHT22;16915;51.466;3.610;2022-08-21T05:11:39;15.20;99.90
30097;DHT22;16915;51.466;3.610;2022-08-21T05:14:06;15.20;99.90
30097;DHT22;16915;51.466;3.610;2022-08-21T05:16:36;15.20;99.90
30097;DHT22;16915;51.466;3.610;2022-08-21T05:19:03;15.20;99.90
30097;DHT22;16915;51.466;3.610;2022-08-21T05:21:30;15.30;99.90
30097;DHT22;16915;51.466;3.610;2022-08-21T05:24:01;15.30;99.90
30097;DHT22;16915;51.466;3.610;2022-08-21T05:26:30;15.30;99.90
30097;DHT22;16915;51.466;3.610;2022-08-21T05:28:56;15.40;99.90
30097;DHT22;16915;51.466;3.610;2022-08-21T05:31:52;15.40;99.90
30097;DHT22;16915;51.466;3.610;2022-08-21T05:34:54;15.50;99.90
30097;DHT22;16915;51.466;3.610;2022-08-21T05:37:34;15.70;99.90
30097;DHT22;16915;51.466;3.610;2022-08-21T05:40:14;15.70;99.90
30097;DHT22;16915;51.466;3.610;2022-08-21T05:42:43;15.80;99.90
30097;DHT22;16915;51.466;3.610;2022-08-21T05:45:13;15.90;99.90
30097;DHT22;16915;51.466;3.610;2022-08-21T05:47:39;16.00;99.90
30097;DHT22;16915;51.466;3.610;2022-08-21T05:50:06;16.10;99.90
30097;DHT22;16915;51.466;3.610;2022-08-21T05:52:33;16.20;99.90
30097;DHT22;16915;51.466;3.610;2022-08-21T05:54:59;16.30;99.90
30097;DHT22;16915;51.466;3.610;2022-08-21T05:57:25;16.30;99.90
30097;DHT22;16915;51.466;3.610;2022-08-21T05:59:52;16.50;99.90
30097;DHT22;16915;51.466;3.610;2022-08-21T06:02:20;16.50;99.90
30097;DHT22;16915;51.466;3.610;2022-08-21T06:04:46;16.50;99.90
30097;DHT22;16915;51.466;3.610;2022-08-21T06:07:12;16.70;99.90
30097;DHT22;16915;51.466;3.610;2022-08-21T06:09:43;16.80;99.90
30097;DHT22;16915;51.466;3.610;2022-08-21T06:12:10;16.90;99.90
30097;DHT22;16915;51.466;3.610;2022-08-21T06:14:38;16.90;99.90
30097;DHT22;16915;51.466;3.610;2022-08-21T06:17:09;17.00;99.90
30097;DHT22;16915;51.466;3.610;2022-08-21T06:19:37;17.00;99.90
30097;DHT22;16915;51.466;3.610;2022-08-21T06:22:06;17.20;99.90
30097;DHT22;16915;51.466;3.610;2022-08-21T06:24:41;17.20;99.90
30097;DHT22;16915;51.466;3.610;2022-08-21T06:27:07;17.30;99.90
30097;DHT22;16915;51.466;3.610;2022-08-21T06:29:34;17.40;99.90
30097;DHT22;16915;51.466;3.610;2022-08-21T06:32:00;17.30;99.90
30097;DHT22;16915;51.466;3.610;2022-08-21T06:34:30;17.60;99.90
30097;DHT22;16915;51.466;3.610;2022-08-21T06:36:56;17.70;99.90
30097;DHT22;16915;51.466;3.610;2022-08-21T06:39:21;17.80;99.90
30097;DHT22;16915;51.466;3.610;2022-08-21T06:41:47;18.00;99.90
30097;DHT22;16915;51.466;3.610;2022-08-21T06:44:16;18.10;99.90
30097;DHT22;16915;51.466;3.610;2022-08-21T06:46:42;18.30;99.90
30097;DHT22;16915;51.466;3.610;2022-08-21T06:49:09;18.40;99.90
30097;DHT22;16915;51.466;3.610;2022-08-21T06:51:35;18.50;99.90
30097;DHT22;16915;51.466;3.610;2022-08-21T06:54:00;18.50;99.90
30097;DHT22;16915;51.466;3.610;2022-08-21T06:56:26;18.60;99.90
30097;DHT22;16915;51.466;3.610;2022-08-21T06:58:51;18.80;99.90
30097;DHT22;16915;51.466;3.610;2022-08-21T07:01:23;18.90;99.90
30097;DHT22;16915;51.466;3.610;2022-08-21T07:03:50;19.00;99.90
30097;DHT22;16915;51.466;3.610;2022-08-21T07:06:17;18.90;99.90
30097;DHT22;16915;51.466;3.610;2022-08-21T07:08:42;19.00;99.90
30097;DHT22;16915;51.466;3.610;2022-08-21T07:11:17;19.10;99.90
30097;DHT22;16915;51.466;3.610;2022-08-21T07:13:44;19.20;99.90
30097;DHT22;16915;51.466;3.610;2022-08-21T07:16:12;19.20;99.90
30097;DHT22;16915;51.466;3.610;2022-08-21T07:18:42;19.10;99.90
30097;DHT22;16915;51.466;3.610;2022-08-21T07:21:08;19.10;99.90
30097;DHT22;16915;51.466;3.610;2022-08-21T07:23:44;19.10;99.90
30097;DHT22;16915;51.466;3.610;2022-08-21T07:26:11;19.10;99.90
30097;DHT22;16915;51.466;3.610;2022-08-21T07:28:37;19.20;99.90
30097;DHT22;16915;51.466;3.610;2022-08-21T07:31:10;19.30;99.90
30097;DHT22;16915;51.466;3.610;2022-08-21T07:33:36;19.40;99.90
30097;DHT22;16915;51.466;3.610;2022-08-21T07:36:02;19.50;99.90
30097;DHT22;16915;51.466;3.610;2022-08-21T07:38:28;19.60;99.90
30097;DHT22;16915;51.466;3.610;2022-08-21T07:40:55;19.80;99.90
30097;DHT22;16915;51.466;3.610;2022-08-21T07:43:22;19.90;99.90
30097;DHT22;16915;51.466;3.610;2022-08-21T07:45:48;19.90;99.90
30097;DHT22;16915;51.466;3.610;2022-08-21T07:48:17;19.90;99.90
30097;DHT22;16915;51.466;3.610;2022-08-21T07:50:43;19.90;99.90
30097;DHT22;16915;51.466;3.610;2022-08-21T07:53:08;19.90;99.90
30097;DHT22;16915;51.466;3.610;2022-08-21T07:55:34;19.80;99.90
30097;DHT22;16915;51.466;3.610;2022-08-21T07:58:00;19.90;99.90
30097;DHT22;16915;51.466;3.610;2022-08-21T08:00:27;20.10;99.90
30097;DHT22;16915;51.466;3.610;2022-08-21T08:02:54;20.30;99.90
30097;DHT22;16915;51.466;3.610;2022-08-21T08:05:24;20.50;99.90
30097;DHT22;16915;51.466;3.610;2022-08-21T08:07:50;20.70;99.90
30097;DHT22;16915;51.466;3.610;2022-08-21T08:10:17;20.80;99.90
30097;DHT22;16915;51.466;3.610;2022-08-21T08:12:44;20.80;99.90
30097;DHT22;16915;51.466;3.610;2022-08-21T08:15:14;20.90;99.90
30097;DHT22;16915;51.466;3.610;2022-08-21T08:17:40;20.90;99.90
30097;DHT22;16915;51.466;3.610;2022-08-21T08:20:07;20.90;99.90
30097;DHT22;16915;51.466;3.610;2022-08-21T08:22:34;21.00;99.90
30097;DHT22;16915;51.466;3.610;2022-08-21T08:25:00;21.00;99.90
30097;DHT22;16915;51.466;3.610;2022-08-21T08:27:32;21.20;99.90
30097;DHT22;16915;51.466;3.610;2022-08-21T08:29:58;21.30;99.90
30097;DHT22;16915;51.466;3.610;2022-08-21T08:32:24;21.40;99.90
30097;DHT22;16915;51.466;3.610;2022-08-21T08:34:50;21.50;99.90
30097;DHT22;16915;51.466;3.610;2022-08-21T08:37:18;21.70;99.90
30097;DHT22;16915;51.466;3.610;2022-08-21T08:39:44;21.90;99.90
30097;DHT22;16915;51.466;3.610;2022-08-21T08:42:18;22.10;99.90
30097;DHT22;16915;51.466;3.610;2022-08-21T08:44:47;22.10;99.90
30097;DHT22;16915;51.466;3.610;2022-08-21T08:47:15;22.00;99.90
30097;DHT22;16915;51.466;3.610;2022-08-21T08:50:02;22.00;99.90
30097;DHT22;16915;51.466;3.610;2022-08-21T08:52:33;22.10;99.90
30097;DHT22;16915;51.466;3.610;2022-08-21T08:55:14;22.10;99.90
30097;DHT22;16915;51.466;3.610;2022-08-21T08:57:45;22.20;99.90
30097;DHT22;16915;51.466;3.610;2022-08-21T09:00:14;22.50;99.90
30097;DHT22;16915;51.466;3.610;2022-08-21T09:02:42;22.70;99.90
30097;DHT22;16915;51.466;3.610;2022-08-21T09:05:12;22.70;99.90
30097;DHT22;16915;51.466;3.610;2022-08-21T09:10:48;22.60;99.90
30097;DHT22;16915;51.466;3.610;2022-08-21T09:14:01;22.40;99.90
30097;DHT22;16915;51.466;3.610;2022-08-21T09:17:02;22.40;99.90
30097;DHT22;16915;51.466;3.610;2022-08-21T09:19:49;22.60;99.90
30097;DHT22;16915;51.466;3.610;2022-08-21T09:25:12;22.90;99.90
30097;DHT22;16915;51.466;3.610;2022-08-21T09:27:40;23.00;99.90
30097;DHT22;16915;51.466;3.610;2022-08-21T09:30:08;22.80;99.90
30097;DHT22;16915;51.466;3.610;2022-08-21T09:32:37;22.60;99.90
30097;DHT22;16915;51.466;3.610;2022-08-21T09:35:12;22.50;99.90
30097;DHT22;16915;51.466;3.610;2022-08-21T09:38:06;22.60;99.90
30097;DHT22;16915;51.466;3.610;2022-08-21T09:40:42;22.60;99.90
30097;DHT22;16915;51.466;3.610;2022-08-21T09:45:41;22.50;99.90
30097;DHT22;16915;51.466;3.610;2022-08-21T09:48:24;22.60;99.90
30097;DHT22;16915;51.466;3.610;2022-08-21T09:50:51;22.70;99.90
30097;DHT22;16915;51.466;3.610;2022-08-21T09:53:25;23.10;99.90
30097;DHT22;16915;51.466;3.610;2022-08-21T09:56:00;23.40;99.90
30097;DHT22;16915;51.466;3.610;2022-08-21T09:58:47;23.70;99.90
30097;DHT22;16915;51.466;3.610;2022-08-21T10:01:21;23.70;99.90
30097;DHT22;16915;51.466;3.610;2022-08-21T10:04:02;23.90;99.90
30097;DHT22;16915;51.466;3.610;2022-08-21T10:06:29;23.90;99.90
30097;DHT22;16915;51.466;3.610;2022-08-21T10:09:13;23.90;99.90
30097;DHT22;16915;51.466;3.610;2022-08-21T10:11:40;23.60;99.90
30097;DHT22;16915;51.466;3.610;2022-08-21T10:14:54;23.20;99.90
30097;DHT22;16915;51.466;3.610;2022-08-21T10:17:35;23.20;99.90
30097;DHT22;16915;51.466;3.610;2022-08-21T10:20:25;23.50;99.90
30097;DHT22;16915;51.466;3.610;2022-08-21T10:25:52;24.50;99.90
30097;DHT22;16915;51.466;3.610;2022-08-21T10:28:33;25.20;99.90
30097;DHT22;16915;51.466;3.610;2022-08-21T10:35:02;25.90;99.90
30097;DHT22;16915;51.466;3.610;2022-08-21T10:40:42;26.70;99.90
30097;DHT22;16915;51.466;3.610;2022-08-21T10:44:30;27.10;99.90
30097;DHT22;16915;51.466;3.610;2022-08-21T10:48:58;27.70;98.20
30097;DHT22;16915;51.466;3.610;2022-08-21T10:51:33;27.70;98.00
30097;DHT22;16915;51.466;3.610;2022-08-21T10:56:38;27.70;95.90
30097;DHT22;16915;51.466;3.610;2022-08-21T11:02:37;28.00;96.10
30097;DHT22;16915;51.466;3.610;2022-08-21T11:07:29;29.00;96.10
30097;DHT22;16915;51.466;3.610;2022-08-21T11:10:01;29.70;95.70
30097;DHT22;16915;51.466;3.610;2022-08-21T11:12:39;30.30;93.60
30097;DHT22;16915;51.466;3.610;2022-08-21T11:15:28;30.80;93.40
30097;DHT22;16915;51.466;3.610;2022-08-21T11:23:54;31.10;91.80
30097;DHT22;16915;51.466;3.610;2022-08-21T11:26:37;31.00;92.30
30097;DHT22;16915;51.466;3.610;2022-08-21T11:29:22;30.90;91.80
30097;DHT22;16915;51.466;3.610;2022-08-21T11:38:01;31.40;91.00
30097;DHT22;16915;51.466;3.610;2022-08-21T11:43:40;30.80;91.30
30097;DHT22;16915;51.466;3.610;2022-08-21T11:51:43;31.60;90.70
30097;DHT22;16915;51.466;3.610;2022-08-21T11:54:30;31.90;89.50
30097;DHT22;16915;51.466;3.610;2022-08-21T11:57:11;31.80;88.90
30097;DHT22;16915;51.466;3.610;2022-08-21T12:00:05;31.60;90.40
30097;DHT22;16915;51.466;3.610;2022-08-21T12:02:38;31.70;90.60
30097;DHT22;16915;51.466;3.610;2022-08-21T12:05:09;31.90;89.90
30097;DHT22;16915;51.466;3.610;2022-08-21T12:07:44;32.30;88.80
30097;DHT22;16915;51.466;3.610;2022-08-21T12:10:17;32.50;88.30
30097;DHT22;16915;51.466;3.610;2022-08-21T12:12:46;32.20;89.40
30097;DHT22;16915;51.466;3.610;2022-08-21T12:18:29;32.80;87.00
30097;DHT22;16915;51.466;3.610;2022-08-21T12:21:25;32.60;86.80
30097;DHT22;16915;51.466;3.610;2022-08-21T12:24:04;31.70;86.30
30097;DHT22;16915;51.466;3.610;2022-08-21T12:26:55;31.10;88.20
30097;DHT22;16915;51.466;3.610;2022-08-21T12:29:27;30.40;89.80
30097;DHT22;16915;51.466;3.610;2022-08-21T12:31:58;30.00;90.90
30097;DHT22;16915;51.466;3.610;2022-08-21T12:34:48;29.40;91.10
30097;DHT22;16915;51.466;3.610;2022-08-21T12:37:30;29.30;91.70
30097;DHT22;16915;51.466;3.610;2022-08-21T12:40:02;29.20;91.30
30097;DHT22;16915;51.466;3.610;2022-08-21T12:42:38;29.00;91.40
30097;DHT22;16915;51.466;3.610;2022-08-21T12:45:43;28.90;91.40
30097;DHT22;16915;51.466;3.610;2022-08-21T12:48:33;28.00;92.10
30097;DHT22;16915;51.466;3.610;2022-08-21T12:51:12;27.70;93.10
30097;DHT22;16915;51.466;3.610;2022-08-21T12:53:56;27.80;92.00
30097;DHT22;16915;51.466;3.610;2022-08-21T12:56:26;27.60;92.30
30097;DHT22;16915;51.466;3.610;2022-08-21T12:58:56;27.70;92.70
30097;DHT22;16915;51.466;3.610;2022-08-21T13:01:24;27.70;93.10
30097;DHT22;16915;51.466;3.610;2022-08-21T13:03:55;27.70;92.20
30097;DHT22;16915;51.466;3.610;2022-08-21T13:06:23;27.60;92.20
30097;DHT22;16915;51.466;3.610;2022-08-21T13:08:55;27.50;92.90
30097;DHT22;16915;51.466;3.610;2022-08-21T13:11:22;27.60;93.20
30097;DHT22;16915;51.466;3.610;2022-08-21T13:13:50;27.70;92.70
30097;DHT22;16915;51.466;3.610;2022-08-21T13:16:25;27.90;92.70
30097;DHT22;16915;51.466;3.610;2022-08-21T13:18:58;28.20;92.60
30097;DHT22;16915;51.466;3.610;2022-08-21T13:21:32;28.20;92.50
30097;DHT22;16915;51.466;3.610;2022-08-21T13:24:36;28.40;93.10
30097;DHT22;16915;51.466;3.610;2022-08-21T13:27:02;29.20;91.40
30097;DHT22;16915;51.466;3.610;2022-08-21T13:29:33;29.10;91.00
30097;DHT22;16915;51.466;3.610;2022-08-21T13:32:05;29.20;90.90
30097;DHT22;16915;51.466;3.610;2022-08-21T13:34:37;29.10;91.10
30097;DHT22;16915;51.466;3.610;2022-08-21T13:37:05;29.10;90.20
30097;DHT22;16915;51.466;3.610;2022-08-21T13:39:32;29.80;91.40
30097;DHT22;16915;51.466;3.610;2022-08-21T13:42:01;30.40;88.80
30097;DHT22;16915;51.466;3.610;2022-08-21T13:44:34;31.00;87.10
30097;DHT22;16915;51.466;3.610;2022-08-21T13:47:03;31.60;86.10
30097;DHT22;16915;51.466;3.610;2022-08-21T13:49:38;32.20;83.00
30097;DHT22;16915;51.466;3.610;2022-08-21T13:52:20;32.40;82.50
30097;DHT22;16915;51.466;3.610;2022-08-21T13:54:56;33.20;82.10
30097;DHT22;16915;51.466;3.610;2022-08-21T13:57:35;34.60;80.70
30097;DHT22;16915;51.466;3.610;2022-08-21T14:00:17;36.00;78.10
30097;DHT22;16915;51.466;3.610;2022-08-21T14:02:47;36.90;73.90
30097;DHT22;16915;51.466;3.610;2022-08-21T14:07:48;37.70;71.20
30097;DHT22;16915;51.466;3.610;2022-08-21T14:10:22;38.40;71.00
30097;DHT22;16915;51.466;3.610;2022-08-21T14:13:05;38.50;68.30
30097;DHT22;16915;51.466;3.610;2022-08-21T14:15:32;38.80;66.20
30097;DHT22;16915;51.466;3.610;2022-08-21T14:18:16;37.60;66.10
30097;DHT22;16915;51.466;3.610;2022-08-21T14:20:43;36.10;67.20
30097;DHT22;16915;51.466;3.610;2022-08-21T14:23:08;34.40;69.00
30097;DHT22;16915;51.466;3.610;2022-08-21T14:25:42;32.70;70.60
30097;DHT22;16915;51.466;3.610;2022-08-21T14:30:46;30.30;75.00
30097;DHT22;16915;51.466;3.610;2022-08-21T14:33:30;29.70;77.30
30097;DHT22;16915;51.466;3.610;2022-08-21T14:35:57;29.00;77.90
30097;DHT22;16915;51.466;3.610;2022-08-21T14:38:29;28.50;80.10
30097;DHT22;16915;51.466;3.610;2022-08-21T14:41:00;28.30;81.90
30097;DHT22;16915;51.466;3.610;2022-08-21T14:43:28;28.00;82.40
30097;DHT22;16915;51.466;3.610;2022-08-21T14:45:55;27.70;83.40
30097;DHT22;16915;51.466;3.610;2022-08-21T14:48:20;27.60;83.40
30097;DHT22;16915;51.466;3.610;2022-08-21T14:50:46;27.60;83.40
30097;DHT22;16915;51.466;3.610;2022-08-21T14:53:15;27.50;83.60
30097;DHT22;16915;51.466;3.610;2022-08-21T14:55:41;27.40;83.70
30097;DHT22;16915;51.466;3.610;2022-08-21T14:58:28;27.30;85.00
30097;DHT22;16915;51.466;3.610;2022-08-21T15:00:54;27.20;84.50
30097;DHT22;16915;51.466;3.610;2022-08-21T15:03:23;26.90;84.10
30097;DHT22;16915;51.466;3.610;2022-08-21T15:05:49;26.50;85.60
30097;DHT22;16915;51.466;3.610;2022-08-21T15:08:15;26.40;86.20
30097;DHT22;16915;51.466;3.610;2022-08-21T15:10:41;26.20;86.50
30097;DHT22;16915;51.466;3.610;2022-08-21T15:13:07;26.10;87.70
30097;DHT22;16915;51.466;3.610;2022-08-21T15:15:39;26.00;87.80
30097;DHT22;16915;51.466;3.610;2022-08-21T15:18:05;25.70;88.80
30097;DHT22;16915;51.466;3.610;2022-08-21T15:20:30;25.60;90.20
30097;DHT22;16915;51.466;3.610;2022-08-21T15:22:56;25.70;90.80
30097;DHT22;16915;51.466;3.610;2022-08-21T15:25:22;25.60;90.00
30097;DHT22;16915;51.466;3.610;2022-08-21T15:27:48;25.50;90.40
30097;DHT22;16915;51.466;3.610;2022-08-21T15:30:13;25.60;90.20
30097;DHT22;16915;51.466;3.610;2022-08-21T15:32:39;25.50;90.30
30097;DHT22;16915;51.466;3.610;2022-08-21T15:35:07;25.60;90.80
30097;DHT22;16915;51.466;3.610;2022-08-21T15:37:33;25.70;90.30
30097;DHT22;16915;51.466;3.610;2022-08-21T15:39:59;25.80;89.90
30097;DHT22;16915;51.466;3.610;2022-08-21T15:42:25;26.50;90.30
30097;DHT22;16915;51.466;3.610;2022-08-21T15:44:55;27.50;87.60
30097;DHT22;16915;51.466;3.610;2022-08-21T15:47:27;28.30;86.10
30097;DHT22;16915;51.466;3.610;2022-08-21T15:49:53;28.50;86.20
30097;DHT22;16915;51.466;3.610;2022-08-21T15:52:20;28.30;85.70
30097;DHT22;16915;51.466;3.610;2022-08-21T15:54:47;27.90;85.10
30097;DHT22;16915;51.466;3.610;2022-08-21T15:57:14;27.60;87.30
30097;DHT22;16915;51.466;3.610;2022-08-21T15:59:50;27.20;88.00
30097;DHT22;16915;51.466;3.610;2022-08-21T16:02:27;26.90;88.60
30097;DHT22;16915;51.466;3.610;2022-08-21T16:04:53;26.60;88.10
30097;DHT22;16915;51.466;3.610;2022-08-21T16:07:19;26.30;89.50
30097;DHT22;16915;51.466;3.610;2022-08-21T16:09:45;26.20;90.30
30097;DHT22;16915;51.466;3.610;2022-08-21T16:12:16;26.10;89.80
30097;DHT22;16915;51.466;3.610;2022-08-21T16:14:42;26.10;90.30
30097;DHT22;16915;51.466;3.610;2022-08-21T16:17:08;26.30;90.40
30097;DHT22;16915;51.466;3.610;2022-08-21T16:19:35;26.40;90.30
30097;DHT22;16915;51.466;3.610;2022-08-21T16:22:01;26.60;89.50
30097;DHT22;16915;51.466;3.610;2022-08-21T16:24:27;26.50;88.90
30097;DHT22;16915;51.466;3.610;2022-08-21T16:26:52;26.40;90.00
30097;DHT22;16915;51.466;3.610;2022-08-21T16:29:18;26.30;90.40
30097;DHT22;16915;51.466;3.610;2022-08-21T16:31:47;26.40;90.20
30097;DHT22;16915;51.466;3.610;2022-08-21T16:34:18;26.20;90.20
30097;DHT22;16915;51.466;3.610;2022-08-21T16:36:45;26.00;90.90
30097;DHT22;16915;51.466;3.610;2022-08-21T16:39:11;26.10;90.90
30097;DHT22;16915;51.466;3.610;2022-08-21T16:41:37;26.10;90.50
30097;DHT22;16915;51.466;3.610;2022-08-21T16:44:03;26.00;90.40
30097;DHT22;16915;51.466;3.610;2022-08-21T16:46:33;26.00;90.70
30097;DHT22;16915;51.466;3.610;2022-08-21T16:48:59;26.00;90.80
30097;DHT22;16915;51.466;3.610;2022-08-21T16:51:31;25.90;91.20
30097;DHT22;16915;51.466;3.610;2022-08-21T16:53:57;25.70;91.10
30097;DHT22;16915;51.466;3.610;2022-08-21T16:56:23;25.20;91.10
30097;DHT22;16915;51.466;3.610;2022-08-21T16:58:50;25.00;92.10